Time;durP1;ratioP1;P1;durP2;ratioP2;P2;SDS_P1;SDS_P2;PMS_P1;PMS_P2;Temp;Humidity;BMP_temperature;BMP_pressure;BME280_temperature;BME280_humidity;BME280_pressure;Samples;Min_cycle;Max_cycle;Signal;HPM_P1;HPM_P2
2023/11/21 00:02:25;;;;;;;;;;;15.30;93.80;;;;;;4041218;29;20312;-57
2023/11/21 00:05:08;;;;;;;;;;;15.30;93.80;;;;;;4040667;29;19997;-57
2023/11/21 00:07:48;;;;;;;;;;;15.30;93.80;;;;;;4041385;29;19987;-57
2023/11/21 00:10:29;;;;;;;;;;;15.30;93.80;;;;;;4041683;29;19934;-57
2023/11/21 00:13:12;;;;;;;;;;;15.30;93.80;;;;;;4041580;29;19935;-57
2023/11/21 00:15:53;;;;;;;;;;;15.30;93.90;;;;;;4026523;29;20406;-56
2023/11/21 00:18:34;;;;;;;;;;;15.30;93.90;;;;;;4025540;29;19955;-56
2023/11/21 00:21:16;;;;;;;;;;;15.30;93.90;;;;;;4025974;29;19935;-57
2023/11/21 00:23:57;;;;;;;;;;;15.20;93.90;;;;;;4025091;29;19938;-56
2023/11/21 00:26:38;;;;;;;;;;;15.20;93.90;;;;;;4025492;29;19939;-55
2023/11/21 00:29:18;;;;;;;;;;;15.20;93.90;;;;;;4026438;29;19935;-55
2023/11/21 00:31:59;;;;;;;;;;;15.20;93.90;;;;;;4040628;29;19979;-56
2023/11/21 00:34:40;;;;;;;;;;;15.20;94.00;;;;;;4039684;29;20028;-56
2023/11/21 00:37:22;;;;;;;;;;;15.30;93.90;;;;;;4040834;29;20303;-55
2023/11/21 00:40:04;;;;;;;;;;;15.30;93.90;;;;;;4032168;29;19982;-56
2023/11/21 00:42:47;;;;;;;;;;;15.30;93.80;;;;;;4021660;29;20429;-56
2023/11/21 00:45:28;;;;;;;;;;;15.40;93.70;;;;;;4035482;29;19938;-56
2023/11/21 00:48:09;;;;;;;;;;;15.50;93.60;;;;;;4017394;29;19935;-55
2023/11/21 00:50:50;;;;;;;;;;;15.50;93.60;;;;;;4031988;29;19951;-57
2023/11/21 00:53:32;;;;;;;;;;;15.50;93.50;;;;;;4043377;29;20399;-56
2023/11/21 00:56:13;;;;;;;;;;;15.50;93.40;;;;;;4043977;29;19934;-56
2023/11/21 00:58:55;;;;;;;;;;;15.60;93.80;;;;;;4043491;29;19955;-56
2023/11/21 01:01:35;;;;;;;;;;;15.60;93.40;;;;;;4016996;29;19935;-56
2023/11/21 01:04:19;;;;;;;;;;;15.60;93.40;;;;;;4028301;29;19974;-56
2023/11/21 01:07:00;;;;;;;;;;;15.60;93.40;;;;;;4028719;29;19939;-57
2023/11/21 01:09:44;;;;;;;;;;;15.70;93.30;;;;;;4017062;29;19934;-56
2023/11/21 01:12:25;;;;;;;;;;;15.70;93.20;;;;;;4028565;29;20927;-56
2023/11/21 01:15:08;;;;;;;;;;;15.70;93.10;;;;;;4028194;29;19987;-56
2023/11/21 01:17:48;;;;;;;;;;;15.80;93.10;;;;;;4028819;29;19934;-56
2023/11/21 01:20:29;;;;;;;;;;;15.80;93.00;;;;;;4016804;29;19939;-57
2023/11/21 01:23:10;;;;;;;;;;;15.80;92.90;;;;;;4017239;29;19938;-57
2023/11/21 01:25:52;;;;;;;;;;;15.80;92.80;;;;;;4027783;29;20534;-56
2023/11/21 01:28:32;;;;;;;;;;;15.90;92.80;;;;;;4030650;29;19934;-56
2023/11/21 01:31:13;;;;;;;;;;;15.90;92.70;;;;;;4032758;29;19934;-57
2023/11/21 01:33:55;;;;;;;;;;;15.90;92.70;;;;;;4041664;29;20303;-57
2023/11/21 01:36:36;;;;;;;;;;;16.00;92.70;;;;;;4044009;29;19962;-56
2023/11/21 01:39:23;;;;;;;;;;;16.00;92.60;;;;;;4027543;29;19948;-57
2023/11/21 01:42:06;;;;;;;;;;;16.00;92.50;;;;;;4017305;29;19934;-58
2023/11/21 01:44:46;;;;;;;;;;;16.00;92.40;;;;;;4028397;29;19971;-58
2023/11/21 01:47:27;;;;;;;;;;;16.00;92.30;;;;;;4016894;29;19935;-57
2023/11/21 01:50:08;;;;;;;;;;;16.00;92.30;;;;;;4027644;29;19935;-57
2023/11/21 01:52:50;;;;;;;;;;;16.10;92.70;;;;;;4023930;29;20402;-58
2023/11/21 01:55:31;;;;;;;;;;;16.10;92.30;;;;;;4032101;29;19959;-56
2023/11/21 01:58:13;;;;;;;;;;;16.10;92.30;;;;;;4031724;29;19938;-57
2023/11/21 02:00:54;;;;;;;;;;;16.10;92.20;;;;;;4026674;29;20332;-57
2023/11/21 02:03:36;;;;;;;;;;;16.10;92.20;;;;;;4016778;29;19982;-57
2023/11/21 02:06:16;;;;;;;;;;;16.10;92.30;;;;;;4016964;29;20339;-57
2023/11/21 02:08:59;;;;;;;;;;;16.10;92.30;;;;;;4028534;29;19939;-58
2023/11/21 02:11:40;;;;;;;;;;;16.00;92.30;;;;;;4028431;29;19934;-57
2023/11/21 02:14:23;;;;;;;;;;;16.10;92.30;;;;;;4016919;29;20019;-57
2023/11/21 02:17:04;;;;;;;;;;;16.20;92.30;;;;;;4026943;29;19956;-57
2023/11/21 02:19:47;;;;;;;;;;;16.20;92.20;;;;;;4016768;29;19935;-57
2023/11/21 02:22:31;;;;;;;;;;;16.20;92.10;;;;;;4040612;29;19938;-57
2023/11/21 02:25:13;;;;;;;;;;;16.20;92.10;;;;;;4043074;29;20411;-57
2023/11/21 02:27:54;;;;;;;;;;;16.20;92.10;;;;;;4040910;29;19938;-58
2023/11/21 02:30:36;;;;;;;;;;;16.20;92.10;;;;;;4029356;29;19947;-58
2023/11/21 02:33:20;;;;;;;;;;;16.20;92.20;;;;;;4016280;29;20358;-57
2023/11/21 02:36:01;;;;;;;;;;;16.10;92.10;;;;;;4021006;29;20047;-57
2023/11/21 02:38:42;;;;;;;;;;;16.20;92.10;;;;;;4042897;29;19939;-57
2023/11/21 02:41:24;;;;;;;;;;;16.20;92.10;;;;;;4042672;29;20014;-57
2023/11/21 02:44:07;;;;;;;;;;;16.20;92.10;;;;;;4026479;29;19935;-57
2023/11/21 02:46:48;;;;;;;;;;;16.20;92.10;;;;;;4015696;29;19934;-57
2023/11/21 02:49:29;;;;;;;;;;;16.20;92.20;;;;;;4015437;29;20403;-57
2023/11/21 02:52:10;;;;;;;;;;;16.20;92.50;;;;;;4033418;29;19934;-58
2023/11/21 02:54:51;;;;;;;;;;;16.20;92.10;;;;;;4042860;29;19970;-57
2023/11/21 02:57:34;;;;;;;;;;;16.20;92.10;;;;;;4030926;29;19938;-58
2023/11/21 03:00:15;;;;;;;;;;;16.20;92.40;;;;;;4036835;29;19934;-58
2023/11/21 03:02:56;;;;;;;;;;;16.20;92.10;;;;;;4042578;29;19951;-58
2023/11/21 03:05:39;;;;;;;;;;;16.20;92.10;;;;;;4042332;29;19933;-58
2023/11/21 03:08:20;;;;;;;;;;;16.20;92.40;;;;;;4041847;29;19982;-58
2023/11/21 03:11:02;;;;;;;;;;;16.20;92.00;;;;;;4030991;29;20403;-58
2023/11/21 03:13:45;;;;;;;;;;;16.20;92.10;;;;;;4042451;29;20575;-58
2023/11/21 03:16:26;;;;;;;;;;;16.20;92.10;;;;;;4029026;29;20010;-58
2023/11/21 03:19:08;;;;;;;;;;;16.20;92.10;;;;;;4026786;29;19935;-60
2023/11/21 03:21:48;;;;;;;;;;;16.10;92.20;;;;;;4026997;29;19935;-57
2023/11/21 03:24:29;;;;;;;;;;;16.20;92.20;;;;;;4026948;29;20098;-57
2023/11/21 03:27:10;;;;;;;;;;;16.20;92.10;;;;;;4014713;29;19939;-59
2023/11/21 03:29:54;;;;;;;;;;;16.20;92.00;;;;;;4026669;29;20079;-57
2023/11/21 03:32:35;;;;;;;;;;;16.30;92.00;;;;;;4026513;29;20035;-57
2023/11/21 03:35:16;;;;;;;;;;;16.30;92.00;;;;;;4027077;29;19939;-59
2023/11/21 03:37:57;;;;;;;;;;;16.40;91.90;;;;;;4027066;29;19952;-58
2023/11/21 03:40:39;;;;;;;;;;;16.40;91.80;;;;;;4015162;29;19983;-58
2023/11/21 03:43:20;;;;;;;;;;;16.40;91.80;;;;;;4037546;29;19954;-57
2023/11/21 03:46:03;;;;;;;;;;;16.40;91.70;;;;;;4042386;29;20295;-59
2023/11/21 03:48:44;;;;;;;;;;;16.40;91.80;;;;;;4031019;29;20367;-58
2023/11/21 03:51:25;;;;;;;;;;;16.30;91.80;;;;;;4041869;29;20394;-57
2023/11/21 03:54:05;;;;;;;;;;;16.30;91.80;;;;;;4042151;29;20383;-57
2023/11/21 03:56:46;;;;;;;;;;;16.30;91.90;;;;;;4042847;29;20454;-58
2023/11/21 03:59:28;;;;;;;;;;;16.20;91.90;;;;;;4014458;29;19935;-58
2023/11/21 04:02:10;;;;;;;;;;;16.30;91.90;;;;;;4015093;29;19955;-58
2023/11/21 04:04:51;;;;;;;;;;;16.30;91.80;;;;;;4026944;29;19939;-58
2023/11/21 04:07:32;;;;;;;;;;;16.30;91.70;;;;;;4022971;29;19939;-59
2023/11/21 04:10:13;;;;;;;;;;;16.30;91.80;;;;;;4026340;29;19934;-58
2023/11/21 04:12:54;;;;;;;;;;;16.30;91.60;;;;;;4026353;29;20291;-58
2023/11/21 04:15:34;;;;;;;;;;;16.40;91.60;;;;;;4030908;29;19939;-58
2023/11/21 04:18:16;;;;;;;;;;;16.40;91.60;;;;;;4030567;29;20579;-57
2023/11/21 04:20:57;;;;;;;;;;;16.30;91.60;;;;;;4024450;29;20299;-57
2023/11/21 04:23:39;;;;;;;;;;;16.40;91.60;;;;;;4030009;29;19939;-56
2023/11/21 04:26:20;;;;;;;;;;;16.30;92.00;;;;;;4024180;29;20307;-57
2023/11/21 04:29:01;;;;;;;;;;;16.30;92.10;;;;;;4045155;29;19987;-57
2023/11/21 04:31:42;;;;;;;;;;;16.30;91.80;;;;;;4033192;29;19934;-57
2023/11/21 04:34:24;;;;;;;;;;;16.30;91.80;;;;;;4039696;29;20464;-58
2023/11/21 04:37:06;;;;;;;;;;;16.30;91.70;;;;;;4044804;29;19978;-57
2023/11/21 04:39:47;;;;;;;;;;;16.40;91.60;;;;;;4042488;29;19942;-57
2023/11/21 04:42:28;;;;;;;;;;;16.40;91.60;;;;;;4025732;29;19935;-56
2023/11/21 04:45:11;;;;;;;;;;;16.30;91.50;;;;;;4045029;29;19950;-57
2023/11/21 04:47:52;;;;;;;;;;;16.30;91.40;;;;;;4045002;29;19982;-56
2023/11/21 04:50:35;;;;;;;;;;;16.40;91.50;;;;;;4027639;29;19998;-57
2023/11/21 04:53:15;;;;;;;;;;;16.30;91.60;;;;;;4028657;29;19935;-57
2023/11/21 04:55:56;;;;;;;;;;;16.30;91.70;;;;;;4029047;29;20053;-57
2023/11/21 04:58:36;;;;;;;;;;;16.30;91.70;;;;;;4029101;29;20011;-57
2023/11/21 05:01:17;;;;;;;;;;;16.30;91.50;;;;;;4028845;29;19940;-57
2023/11/21 05:03:58;;;;;;;;;;;16.20;91.40;;;;;;4029791;29;20071;-57
2023/11/21 05:06:40;;;;;;;;;;;16.20;91.30;;;;;;4032801;29;20295;-56
2023/11/21 05:09:22;;;;;;;;;;;16.10;91.30;;;;;;4028986;29;20386;-57
2023/11/21 05:12:03;;;;;;;;;;;16.10;91.10;;;;;;4028674;29;19938;-56
2023/11/21 05:14:44;;;;;;;;;;;16.20;91.00;;;;;;4028017;29;19939;-56
2023/11/21 05:17:24;;;;;;;;;;;16.10;90.90;;;;;;4041947;29;20015;-56
2023/11/21 05:20:08;;;;;;;;;;;16.10;91.10;;;;;;4029078;29;19938;-58
2023/11/21 05:22:50;;;;;;;;;;;16.10;91.20;;;;;;4029032;29;19955;-57
2023/11/21 05:25:32;;;;;;;;;;;16.20;91.10;;;;;;4017116;29;19935;-57
2023/11/21 05:28:13;;;;;;;;;;;16.20;91.20;;;;;;4028281;29;19995;-57
2023/11/21 05:30:54;;;;;;;;;;;16.20;91.20;;;;;;4032104;29;19935;-56
2023/11/21 05:33:42;;;;;;;;;;;16.20;91.30;;;;;;4028631;29;19958;-51
2023/11/21 05:36:23;;;;;;;;;;;16.20;91.20;;;;;;4028365;29;19950;-46
2023/11/21 05:39:05;;;;;;;;;;;16.20;91.40;;;;;;4017729;29;19946;-50
2023/11/21 05:41:46;;;;;;;;;;;16.20;91.00;;;;;;4028456;29;20284;-57
2023/11/21 05:44:30;;;;;;;;;;;16.30;91.10;;;;;;4028788;29;19935;-55
2023/11/21 05:47:11;;;;;;;;;;;16.30;91.20;;;;;;4028274;29;19970;-57
2023/11/21 05:49:52;;;;;;;;;;;16.30;91.00;;;;;;4040664;29;19982;-57
2023/11/21 05:52:33;;;;;;;;;;;16.30;90.90;;;;;;4031999;29;19939;-45
2023/11/21 05:55:16;;;;;;;;;;;16.30;90.80;;;;;;4043421;29;20385;-45
2023/11/21 05:57:56;;;;;;;;;;;16.30;90.70;;;;;;4043543;29;19970;-45
2023/11/21 06:00:37;;;;;;;;;;;16.30;90.80;;;;;;4043278;29;20435;-46
2023/11/21 06:03:18;;;;;;;;;;;16.20;90.80;;;;;;4041964;29;20065;-47
2023/11/21 06:05:59;;;;;;;;;;;16.20;90.90;;;;;;4043046;29;20513;-46
2023/11/21 06:08:40;;;;;;;;;;;16.20;91.00;;;;;;4043530;29;19935;-45
2023/11/21 06:11:22;;;;;;;;;;;16.20;91.10;;;;;;4043783;29;20068;-51
2023/11/21 06:14:03;;;;;;;;;;;16.20;90.60;;;;;;4032204;29;19938;-46
2023/11/21 06:16:45;;;;;;;;;;;16.30;90.70;;;;;;4043522;29;19939;-45
2023/11/21 06:19:26;;;;;;;;;;;16.30;90.90;;;;;;4042139;29;19986;-45
2023/11/21 06:22:07;;;;;;;;;;;16.30;90.80;;;;;;4039317;29;19939;-47
2023/11/21 06:24:48;;;;;;;;;;;16.40;90.60;;;;;;4037634;29;19934;-45
2023/11/21 06:27:30;;;;;;;;;;;16.40;90.50;;;;;;4028106;29;19938;-48
2023/11/21 06:30:13;;;;;;;;;;;16.30;90.30;;;;;;4028043;29;19939;-45
2023/11/21 06:32:54;;;;;;;;;;;16.30;90.30;;;;;;4027874;29;20060;-46
2023/11/21 06:35:36;;;;;;;;;;;16.40;90.70;;;;;;4027578;29;19935;-47
2023/11/21 06:38:17;;;;;;;;;;;16.30;90.40;;;;;;4027016;29;20444;-49
2023/11/21 06:40:58;;;;;;;;;;;16.30;90.50;;;;;;4027591;29;19935;-47
2023/11/21 06:43:40;;;;;;;;;;;16.30;90.60;;;;;;4027902;29;20067;-49
2023/11/21 06:46:22;;;;;;;;;;;16.20;90.60;;;;;;4027448;29;19943;-56
2023/11/21 06:49:02;;;;;;;;;;;16.20;90.50;;;;;;4027196;29;20092;-57
2023/11/21 06:51:43;;;;;;;;;;;16.20;90.70;;;;;;4027349;29;19935;-57
2023/11/21 06:54:24;;;;;;;;;;;16.10;90.70;;;;;;4027575;29;20311;-57
2023/11/21 06:57:05;;;;;;;;;;;16.10;90.90;;;;;;4015214;29;19939;-57
2023/11/21 06:59:47;;;;;;;;;;;16.00;91.10;;;;;;4016634;29;20306;-56
2023/11/21 07:02:28;;;;;;;;;;;16.00;91.00;;;;;;4027406;29;19950;-56
2023/11/21 07:05:09;;;;;;;;;;;16.00;90.80;;;;;;4027387;29;19978;-56
2023/11/21 07:07:50;;;;;;;;;;;16.00;90.60;;;;;;4015401;29;19935;-56
2023/11/21 07:10:32;;;;;;;;;;;16.10;90.70;;;;;;4026714;29;19934;-55
2023/11/21 07:13:12;;;;;;;;;;;16.10;90.40;;;;;;4027277;29;19935;-54
2023/11/21 07:15:55;;;;;;;;;;;16.10;90.70;;;;;;4015569;29;19934;-57
2023/11/21 07:18:36;;;;;;;;;;;16.20;90.80;;;;;;4027420;29;19934;-56
2023/11/21 07:21:16;;;;;;;;;;;16.20;90.60;;;;;;4026812;29;19939;-57
2023/11/21 07:23:56;;;;;;;;;;;16.20;90.70;;;;;;4015643;29;19939;-50
2023/11/21 07:26:38;;;;;;;;;;;16.30;90.50;;;;;;4027705;29;19952;-59
2023/11/21 07:29:19;;;;;;;;;;;16.20;90.30;;;;;;4027607;29;19983;-58
2023/11/21 07:32:01;;;;;;;;;;;16.30;90.40;;;;;;4029381;29;19954;-58
2023/11/21 07:34:42;;;;;;;;;;;16.20;90.20;;;;;;4026313;29;19935;-58
2023/11/21 07:37:23;;;;;;;;;;;16.20;89.70;;;;;;4034700;29;19935;-57
2023/11/21 07:40:04;;;;;;;;;;;16.20;90.20;;;;;;4026731;29;19934;-58
2023/11/21 07:42:45;;;;;;;;;;;16.10;90.00;;;;;;4036490;29;20117;-58
2023/11/21 07:45:27;;;;;;;;;;;16.00;90.10;;;;;;4030440;29;20017;-58
2023/11/21 07:48:09;;;;;;;;;;;16.00;90.50;;;;;;4038031;29;20696;-49
2023/11/21 07:50:50;;;;;;;;;;;15.90;90.40;;;;;;4045436;29;20378;-50
2023/11/21 07:53:30;;;;;;;;;;;15.90;90.10;;;;;;4045388;29;20067;-48
2023/11/21 07:56:12;;;;;;;;;;;15.90;90.30;;;;;;4044984;29;20025;-46
2023/11/21 07:58:54;;;;;;;;;;;15.90;90.40;;;;;;4031422;29;19935;-48
2023/11/21 08:01:35;;;;;;;;;;;15.80;90.40;;;;;;4030220;29;19938;-50
2023/11/21 08:04:16;;;;;;;;;;;15.80;90.50;;;;;;4041852;29;20027;-48
2023/11/21 08:06:57;;;;;;;;;;;15.80;90.60;;;;;;4040477;29;19934;-47
2023/11/21 08:09:38;;;;;;;;;;;15.70;90.60;;;;;;4045063;29;19947;-47
2023/11/21 08:12:20;;;;;;;;;;;15.70;90.90;;;;;;4029844;29;20659;-48
2023/11/21 08:15:02;;;;;;;;;;;15.70;90.90;;;;;;4029854;29;19939;-49
2023/11/21 08:17:43;;;;;;;;;;;15.70;90.80;;;;;;4029675;29;19976;-51
2023/11/21 08:20:25;;;;;;;;;;;15.60;90.40;;;;;;4030050;29;20395;-50
2023/11/21 08:23:07;;;;;;;;;;;15.60;90.50;;;;;;4030231;29;19935;-51
2023/11/21 08:25:48;;;;;;;;;;;15.50;90.30;;;;;;4029711;29;20272;-48
2023/11/21 08:28:28;;;;;;;;;;;15.50;90.30;;;;;;4029493;29;19983;-49
2023/11/21 08:31:09;;;;;;;;;;;15.50;90.40;;;;;;4029848;29;19955;-51
2023/11/21 08:33:55;;;;;;;;;;;15.50;90.70;;;;;;4029262;29;20395;-49
2023/11/21 08:36:37;;;;;;;;;;;15.50;90.50;;;;;;4037018;29;20091;-48
2023/11/21 08:39:19;;;;;;;;;;;15.60;90.70;;;;;;4044177;29;20084;-47
2023/11/21 08:42:00;;;;;;;;;;;15.60;90.60;;;;;;4033375;29;19994;-49
2023/11/21 08:44:41;;;;;;;;;;;15.60;90.50;;;;;;4044238;29;20066;-49
2023/11/21 08:47:24;;;;;;;;;;;15.60;90.50;;;;;;4044776;29;20295;-53
2023/11/21 08:50:06;;;;;;;;;;;15.70;90.00;;;;;;4033332;29;20454;-52
2023/11/21 08:52:48;;;;;;;;;;;15.60;89.60;;;;;;4044895;29;19954;-49
2023/11/21 08:55:29;;;;;;;;;;;15.70;89.90;;;;;;4044687;29;20291;-48
2023/11/21 08:58:09;;;;;;;;;;;15.70;90.00;;;;;;4026763;29;19935;-49
2023/11/21 09:00:50;;;;;;;;;;;15.70;89.60;;;;;;4029117;29;19935;-48
2023/11/21 09:03:32;;;;;;;;;;;15.80;89.10;;;;;;4029502;29;19961;-51
2023/11/21 09:06:14;;;;;;;;;;;15.70;89.00;;;;;;4031540;29;20068;-48
2023/11/21 09:08:55;;;;;;;;;;;15.80;89.70;;;;;;4044892;29;20409;-49
2023/11/21 09:11:36;;;;;;;;;;;15.80;89.80;;;;;;4044764;29;19934;-49
2023/11/21 09:14:17;;;;;;;;;;;15.70;89.00;;;;;;4033028;29;20334;-51
2023/11/21 09:16:58;;;;;;;;;;;15.80;88.00;;;;;;4044567;29;20531;-49
2023/11/21 09:19:40;;;;;;;;;;;15.70;87.90;;;;;;4040542;29;19956;-49
2023/11/21 09:22:20;;;;;;;;;;;15.70;89.30;;;;;;4028981;29;20398;-49
2023/11/21 09:25:04;;;;;;;;;;;15.70;88.60;;;;;;4028894;29;19935;-48
2023/11/21 09:27:45;;;;;;;;;;;15.80;88.70;;;;;;4029099;29;19935;-51
2023/11/21 09:30:26;;;;;;;;;;;15.90;86.10;;;;;;4028936;29;19936;-48
2023/11/21 09:33:10;;;;;;;;;;;15.90;86.90;;;;;;4028927;29;20690;-57
2023/11/21 09:35:52;;;;;;;;;;;16.00;86.30;;;;;;4033672;29;19939;-56
2023/11/21 09:38:33;;;;;;;;;;;16.10;86.80;;;;;;4033088;29;19935;-57
2023/11/21 09:41:21;;;;;;;;;;;16.10;84.70;;;;;;4028255;29;20011;-57
2023/11/21 09:44:03;;;;;;;;;;;16.10;83.70;;;;;;4029353;29;19934;-57
2023/11/21 09:46:45;;;;;;;;;;;16.20;83.40;;;;;;4028666;29;19938;-57
2023/11/21 09:49:27;;;;;;;;;;;16.10;81.20;;;;;;4028642;29;19939;-57
2023/11/21 09:52:10;;;;;;;;;;;16.20;83.80;;;;;;4029563;29;19934;-57
2023/11/21 09:54:51;;;;;;;;;;;16.20;84.60;;;;;;4028801;29;19938;-56
2023/11/21 09:57:33;;;;;;;;;;;16.20;83.50;;;;;;4028724;29;19939;-56
2023/11/21 10:00:17;;;;;;;;;;;16.20;82.90;;;;;;4028192;29;20150;-57
2023/11/21 10:02:59;;;;;;;;;;;16.20;82.90;;;;;;4028373;29;19935;-57
2023/11/21 10:05:39;;;;;;;;;;;16.20;82.50;;;;;;4028687;29;19979;-56
2023/11/21 10:08:22;;;;;;;;;;;16.20;81.10;;;;;;4028355;29;19935;-56
2023/11/21 10:11:06;;;;;;;;;;;16.20;81.90;;;;;;4028911;29;19949;-57
2023/11/21 10:13:48;;;;;;;;;;;16.20;81.10;;;;;;4028585;29;19939;-56
2023/11/21 10:16:29;;;;;;;;;;;16.20;80.50;;;;;;4028116;29;19935;-57
2023/11/21 10:19:10;;;;;;;;;;;16.20;81.60;;;;;;4016631;29;19952;-57
2023/11/21 10:21:52;;;;;;;;;;;16.30;79.70;;;;;;4028403;29;19983;-57
2023/11/21 10:24:33;;;;;;;;;;;16.20;79.60;;;;;;4028276;29;19943;-57
2023/11/21 10:27:21;;;;;;;;;;;16.20;80.90;;;;;;4043534;29;20359;-57
2023/11/21 10:30:04;;;;;;;;;;;16.10;80.90;;;;;;4043069;29;19986;-56
2023/11/21 10:32:44;;;;;;;;;;;16.10;80.90;;;;;;4043405;29;20517;-57
2023/11/21 10:35:25;;;;;;;;;;;16.10;81.30;;;;;;4042592;29;19934;-56
2023/11/21 10:38:08;;;;;;;;;;;16.00;80.80;;;;;;4043361;29;19986;-57
2023/11/21 10:40:49;;;;;;;;;;;16.00;80.80;;;;;;4043135;29;19994;-55
2023/11/21 10:43:30;;;;;;;;;;;16.00;80.00;;;;;;4028036;29;19953;-57
2023/11/21 10:46:14;;;;;;;;;;;15.90;81.20;;;;;;4028066;29;19954;-56
2023/11/21 10:48:56;;;;;;;;;;;16.00;80.80;;;;;;4027813;29;19934;-56
2023/11/21 10:51:36;;;;;;;;;;;16.10;80.10;;;;;;4027390;29;19935;-56
2023/11/21 10:54:21;;;;;;;;;;;16.10;79.40;;;;;;4027366;29;20028;-56
2023/11/21 10:57:03;;;;;;;;;;;16.20;79.40;;;;;;4027865;29;19939;-57
2023/11/21 10:59:47;;;;;;;;;;;16.20;79.80;;;;;;4027789;29;20395;-56
2023/11/21 11:02:32;;;;;;;;;;;16.20;79.00;;;;;;4027912;29;20306;-57
2023/11/21 11:05:13;;;;;;;;;;;16.20;78.70;;;;;;4027826;29;19935;-56
2023/11/21 11:07:59;;;;;;;;;;;16.10;80.20;;;;;;4027812;29;19939;-56
2023/11/21 11:10:40;;;;;;;;;;;16.10;82.10;;;;;;4027671;29;19935;-56
2023/11/21 11:13:21;;;;;;;;;;;16.20;82.60;;;;;;4027438;29;19974;-57
2023/11/21 11:16:03;;;;;;;;;;;16.20;79.70;;;;;;4027618;29;20114;-57
2023/11/21 11:18:47;;;;;;;;;;;16.20;78.80;;;;;;4027901;29;20027;-57
2023/11/21 11:21:32;;;;;;;;;;;16.20;78.00;;;;;;4028029;29;19954;-55
2023/11/21 11:24:19;;;;;;;;;;;16.20;77.50;;;;;;4015771;29;20300;-55
2023/11/21 11:27:08;;;;;;;;;;;16.20;79.10;;;;;;4027327;29;20339;-54
2023/11/21 11:29:55;;;;;;;;;;;16.20;79.60;;;;;;4027344;29;20014;-57
2023/11/21 11:32:41;;;;;;;;;;;16.20;77.80;;;;;;4015737;29;20402;-56
2023/11/21 11:35:27;;;;;;;;;;;16.30;75.20;;;;;;4015776;29;20288;-57
2023/11/21 11:38:08;;;;;;;;;;;16.30;78.60;;;;;;4027465;29;20061;-56
2023/11/21 11:40:53;;;;;;;;;;;16.30;77.30;;;;;;4027441;29;19934;-56
2023/11/21 11:43:40;;;;;;;;;;;16.20;76.80;;;;;;4027708;29;19938;-57
2023/11/21 11:46:22;;;;;;;;;;;16.20;77.80;;;;;;4027547;29;19990;-55
2023/11/21 11:49:04;;;;;;;;;;;16.20;77.50;;;;;;4027460;29;19979;-57
2023/11/21 11:51:46;;;;;;;;;;;16.10;77.70;;;;;;4027441;29;20064;-57
2023/11/21 11:54:35;;;;;;;;;;;16.20;79.70;;;;;;4027254;29;19943;-57
2023/11/21 11:57:17;;;;;;;;;;;16.10;77.50;;;;;;4027029;29;19935;-53
2023/11/21 12:00:11;;;;;;;;;;;16.10;78.10;;;;;;4027476;29;20447;-50
2023/11/21 12:02:53;;;;;;;;;;;16.10;77.50;;;;;;4025967;29;20001;-49
2023/11/21 12:05:35;;;;;;;;;;;16.00;77.60;;;;;;4027142;29;19935;-50
2023/11/21 12:08:17;;;;;;;;;;;16.00;77.30;;;;;;4027273;29;19944;-51
2023/11/21 12:10:58;;;;;;;;;;;15.90;76.50;;;;;;4027015;29;20303;-51
2023/11/21 12:13:39;;;;;;;;;;;15.90;76.90;;;;;;4015682;29;19935;-49
2023/11/21 12:16:21;;;;;;;;;;;15.90;77.20;;;;;;4026384;29;20075;-51
2023/11/21 12:19:02;;;;;;;;;;;15.90;78.90;;;;;;4026731;29;19935;-48
2023/11/21 12:21:44;;;;;;;;;;;15.90;78.30;;;;;;4015589;29;20448;-48
2023/11/21 12:24:28;;;;;;;;;;;16.00;76.20;;;;;;4027305;29;19935;-48
2023/11/21 12:27:09;;;;;;;;;;;16.00;77.70;;;;;;4026714;29;20454;-48
2023/11/21 12:29:50;;;;;;;;;;;16.10;79.20;;;;;;4026722;29;19934;-49
2023/11/21 12:32:30;;;;;;;;;;;16.00;77.90;;;;;;4026944;29;19938;-50
2023/11/21 12:35:11;;;;;;;;;;;16.00;77.30;;;;;;4027938;29;19934;-50
2023/11/21 12:37:53;;;;;;;;;;;16.00;79.10;;;;;;4029544;29;19938;-51
2023/11/21 12:40:35;;;;;;;;;;;16.00;77.80;;;;;;4030054;29;19934;-48
2023/11/21 12:43:18;;;;;;;;;;;16.00;77.00;;;;;;4029885;29;20075;-48
2023/11/21 12:46:05;;;;;;;;;;;15.90;77.50;;;;;;4029622;29;19934;-47
2023/11/21 12:48:47;;;;;;;;;;;15.90;78.10;;;;;;4029272;29;19935;-47
2023/11/21 12:51:29;;;;;;;;;;;15.80;78.30;;;;;;4028960;29;19959;-52
2023/11/21 12:54:10;;;;;;;;;;;15.80;78.20;;;;;;4019199;29;19938;-49
2023/11/21 12:56:52;;;;;;;;;;;15.70;80.10;;;;;;4032203;29;19939;-47
2023/11/21 12:59:34;;;;;;;;;;;15.80;78.90;;;;;;4017558;29;20042;-51
2023/11/21 13:02:15;;;;;;;;;;;15.70;79.10;;;;;;4033028;29;19938;-47
2023/11/21 13:04:58;;;;;;;;;;;15.70;79.10;;;;;;4041470;29;19935;-47
2023/11/21 13:07:46;;;;;;;;;;;15.60;77.80;;;;;;4028525;29;20474;-49
2023/11/21 13:10:30;;;;;;;;;;;15.60;79.80;;;;;;4028971;29;19934;-51
2023/11/21 13:13:16;;;;;;;;;;;15.60;79.40;;;;;;4031807;29;19979;-49
2023/11/21 13:16:03;;;;;;;;;;;15.70;79.70;;;;;;4038037;29;20395;-49
2023/11/21 13:18:44;;;;;;;;;;;15.70;80.90;;;;;;4053055;29;19935;-49
2023/11/21 13:21:25;;;;;;;;;;;15.70;80.60;;;;;;4026986;29;19939;-47
2023/11/21 13:24:06;;;;;;;;;;;15.70;78.60;;;;;;4029276;29;19938;-49
2023/11/21 13:26:47;;;;;;;;;;;15.70;78.40;;;;;;4038378;29;19954;-50
2023/11/21 13:29:31;;;;;;;;;;;15.70;78.50;;;;;;4029169;29;19939;-48
2023/11/21 13:32:12;;;;;;;;;;;15.70;78.20;;;;;;4034898;29;20413;-48
2023/11/21 13:34:54;;;;;;;;;;;15.60;78.40;;;;;;4035310;29;19937;-49
2023/11/21 13:37:34;;;;;;;;;;;15.60;79.00;;;;;;4023691;29;19934;-49
2023/11/21 13:40:22;;;;;;;;;;;15.50;78.50;;;;;;4018512;29;19935;-50
2023/11/21 13:43:05;;;;;;;;;;;15.60;80.20;;;;;;4031562;29;20415;-47
2023/11/21 13:45:47;;;;;;;;;;;15.50;81.10;;;;;;4040610;29;20402;-48
2023/11/21 13:48:40;;;;;;;;;;;15.50;81.40;;;;;;4041278;29;20331;-49
2023/11/21 13:51:29;;;;;;;;;;;15.40;82.30;;;;;;4026853;29;19935;-48
2023/11/21 13:54:10;;;;;;;;;;;15.40;82.70;;;;;;4028448;29;19938;-48
2023/11/21 13:56:51;;;;;;;;;;;15.40;81.30;;;;;;4026229;29;19944;-47
2023/11/21 13:59:32;;;;;;;;;;;15.30;81.70;;;;;;4027450;29;20080;-48
2023/11/21 14:02:18;;;;;;;;;;;15.30;82.80;;;;;;4027712;29;19952;-52
2023/11/21 14:05:00;;;;;;;;;;;15.30;83.70;;;;;;4040244;29;19939;-48
2023/11/21 14:07:47;;;;;;;;;;;15.30;83.90;;;;;;4034564;29;19943;-51
2023/11/21 14:10:36;;;;;;;;;;;15.30;83.90;;;;;;4040924;29;20150;-50
2023/11/21 14:13:18;;;;;;;;;;;15.30;84.20;;;;;;4040600;29;19938;-48
2023/11/21 14:16:00;;;;;;;;;;;15.20;83.90;;;;;;4040296;29;19939;-47
2023/11/21 14:18:52;;;;;;;;;;;15.20;82.90;;;;;;4040810;29;19938;-51
2023/11/21 14:21:33;;;;;;;;;;;15.20;82.60;;;;;;4031208;29;19943;-48
2023/11/21 14:24:15;;;;;;;;;;;15.10;80.80;;;;;;4020885;29;19942;-47
2023/11/21 14:26:56;;;;;;;;;;;15.10;80.70;;;;;;4026115;29;19948;-49
2023/11/21 14:29:39;;;;;;;;;;;15.00;80.10;;;;;;4028670;29;20755;-46
2023/11/21 14:32:21;;;;;;;;;;;15.00;80.30;;;;;;4028017;29;19955;-47
2023/11/21 14:35:04;;;;;;;;;;;14.90;80.90;;;;;;4025447;29;20827;-47
2023/11/21 14:37:46;;;;;;;;;;;15.00;81.20;;;;;;4029041;29;19938;-48
2023/11/21 14:40:32;;;;;;;;;;;14.90;80.80;;;;;;4039069;29;19934;-46
2023/11/21 14:43:13;;;;;;;;;;;14.90;82.50;;;;;;4039795;29;19938;-48
2023/11/21 14:45:56;;;;;;;;;;;14.80;83.60;;;;;;4040088;29;19954;-47
2023/11/21 14:48:42;;;;;;;;;;;14.80;83.90;;;;;;4032892;29;20026;-47
2023/11/21 14:51:30;;;;;;;;;;;14.80;84.20;;;;;;4030477;29;19958;-46
2023/11/21 14:54:11;;;;;;;;;;;14.80;84.10;;;;;;4039870;29;20003;-46
2023/11/21 14:56:52;;;;;;;;;;;14.80;83.40;;;;;;4025369;29;20084;-47
2023/11/21 14:59:32;;;;;;;;;;;14.80;84.50;;;;;;4026160;29;20296;-47
2023/11/21 15:02:16;;;;;;;;;;;14.80;85.20;;;;;;4038187;29;19951;-47
2023/11/21 15:05:02;;;;;;;;;;;14.80;85.40;;;;;;4039581;29;19959;-46
2023/11/21 15:07:44;;;;;;;;;;;14.70;85.20;;;;;;4034386;29;19948;-50
2023/11/21 15:10:38;;;;;;;;;;;14.70;85.80;;;;;;4031652;29;19938;-49
2023/11/21 15:13:19;;;;;;;;;;;14.70;86.10;;;;;;4024700;29;20075;-49
2023/11/21 15:16:07;;;;;;;;;;;14.70;85.20;;;;;;4029948;29;20085;-50
2023/11/21 15:18:48;;;;;;;;;;;14.70;83.70;;;;;;4029657;29;19939;-47
2023/11/21 15:21:29;;;;;;;;;;;14.70;84.50;;;;;;4030780;29;19948;-48
2023/11/21 15:24:12;;;;;;;;;;;14.70;84.70;;;;;;4035306;29;19978;-49
2023/11/21 15:26:53;;;;;;;;;;;14.70;85.50;;;;;;4024669;29;20063;-48
2023/11/21 15:29:34;;;;;;;;;;;14.70;85.30;;;;;;4027744;29;20407;-50
2023/11/21 15:32:15;;;;;;;;;;;14.70;84.10;;;;;;4017574;29;19970;-47
2023/11/21 15:34:56;;;;;;;;;;;14.60;84.20;;;;;;4039364;29;19942;-46
2023/11/21 15:37:36;;;;;;;;;;;14.60;85.10;;;;;;4031805;29;20707;-48
2023/11/21 15:40:19;;;;;;;;;;;14.60;85.90;;;;;;4032514;29;20251;-50
2023/11/21 15:43:03;;;;;;;;;;;14.70;85.50;;;;;;3985272;29;20080;-49